Westover, Alabama
Current Conditions -  °F | °C
As of 1:53 PM on Thursday 23 Oct 2014 (Local Time) from KEET Reporting Station
Clear Clear  
Wind Chill: 69°   Ceiling: Unl
Heat Index: 69°   Visibility: 10mi
Dew Point: 42°   Wind: 3mph
Humidity: 38%   Direction: 20°NNE
Pressure: 30.08"   Gusts: NA
Location:  33.35°N, 86.54°W
Report Text: KEET 231853Z AUTO 02003KT 10SM CLR 21/06 A3008 RMK AO2 SLP184 T02060056
Loading
Personal Weather Stations






























Interactive Weather Map
Tropical Storm Tracking
New forecast layout! Learn more

10-Day Weather Forecast

Advertisements
Track Severe Weather on mobile